Time;durP1;ratioP1;P1;durP2;ratioP2;P2;SDS_P1;SDS_P2;PMS_P1;PMS_P2;Temp;Humidity;BMP_temperature;BMP_pressure;BME280_temperature;BME280_humidity;BME280_pressure;Samples;Min_cycle;Max_cycle;Signal;HPM_P1;HPM_P2
2023/12/03 00:00:01;;;;;;;40.10;18.23;;;;;;;-0.90;100.00;101807.66;5073448;28;20028;-66
2023/12/03 00:02:26;;;;;;;40.97;17.63;;;;;;;-0.89;100.00;101809.31;5073395;28;20036;-66
2023/12/03 00:04:53;;;;;;;42.33;19.50;;;;;;;-0.89;100.00;101798.47;5064334;28;20029;-66
2023/12/03 00:07:20;;;;;;;38.20;16.73;;;;;;;-0.86;100.00;101798.06;5053075;28;20064;-66
2023/12/03 00:09:46;;;;;;;38.35;17.55;;;;;;;-0.80;100.00;101801.81;5060882;28;20031;-66
2023/12/03 00:12:12;;;;;;;38.97;17.45;;;;;;;-0.77;100.00;101797.84;5073202;28;20486;-65
2023/12/03 00:14:37;;;;;;;38.10;17.30;;;;;;;-0.71;100.00;101800.56;5067675;28;20473;-66
2023/12/03 00:17:03;;;;;;;39.78;16.98;;;;;;;-0.69;100.00;101790.31;5062944;28;20443;-66
2023/12/03 00:19:28;;;;;;;40.58;18.13;;;;;;;-0.67;100.00;101801.00;5057720;28;20032;-67
2023/12/03 00:21:53;;;;;;;37.47;15.80;;;;;;;-0.61;100.00;101800.16;5054320;28;20025;-66
2023/12/03 00:24:19;;;;;;;39.30;17.48;;;;;;;-0.61;100.00;101794.72;5057361;28;20032;-65
2023/12/03 00:26:45;;;;;;;38.08;16.52;;;;;;;-0.59;100.00;101797.22;5064894;28;20032;-66
2023/12/03 00:29:10;;;;;;;39.72;17.45;;;;;;;-0.60;100.00;101792.84;5054787;28;20024;-66
2023/12/03 00:31:36;;;;;;;38.80;16.35;;;;;;;-0.60;100.00;101799.13;5063825;28;20016;-66
2023/12/03 00:34:03;;;;;;;36.75;16.52;;;;;;;-0.58;100.00;101801.63;5070181;28;20161;-66
2023/12/03 00:36:28;;;;;;;38.78;16.58;;;;;;;-0.54;100.00;101805.63;5057044;28;20040;-64
2023/12/03 00:38:54;;;;;;;39.47;17.80;;;;;;;-0.50;100.00;101804.13;5051606;28;20039;-65
2023/12/03 00:41:19;;;;;;;40.25;17.13;;;;;;;-0.47;100.00;101806.44;5052702;28;20040;-65
2023/12/03 00:43:44;;;;;;;37.92;15.40;;;;;;;-0.48;100.00;101811.06;5052596;28;20037;-65
2023/12/03 00:46:10;;;;;;;37.60;15.25;;;;;;;-0.45;100.00;101804.38;5066986;28;20052;-67
2023/12/03 00:48:35;;;;;;;39.53;15.70;;;;;;;-0.45;100.00;101803.50;5067063;28;20039;-66
2023/12/03 00:51:00;;;;;;;38.72;15.32;;;;;;;-0.41;100.00;101796.63;5051769;28;20384;-66
2023/12/03 00:53:26;;;;;;;39.65;15.82;;;;;;;-0.38;100.00;101797.03;5052064;28;20025;-66
2023/12/03 00:55:52;;;;;;;39.85;15.95;;;;;;;-0.38;100.00;101802.47;5066371;28;20043;-66
2023/12/03 00:58:18;;;;;;;38.42;16.73;;;;;;;-0.36;100.00;101808.56;5057447;28;20053;-66
2023/12/03 01:00:43;;;;;;;38.75;16.92;;;;;;;-0.37;100.00;101806.88;5059554;28;20127;-66
2023/12/03 01:03:08;;;;;;;40.47;17.23;;;;;;;-0.37;100.00;101804.16;5065096;28;20026;-67
2023/12/03 01:05:33;;;;;;;39.17;17.83;;;;;;;-0.36;100.00;101814.00;5063095;28;20039;-66
2023/12/03 01:07:59;;;;;;;37.97;16.13;;;;;;;-0.37;100.00;101800.59;5051604;28;20049;-66
2023/12/03 01:10:24;;;;;;;40.38;17.60;;;;;;;-0.36;100.00;101803.13;5052950;28;20124;-66
2023/12/03 01:12:50;;;;;;;39.30;16.17;;;;;;;-0.35;100.00;101807.50;5052136;28;20029;-65
2023/12/03 01:15:15;;;;;;;38.50;17.20;;;;;;;-0.35;100.00;101802.06;5059976;28;20098;-66
2023/12/03 01:17:40;;;;;;;40.47;16.30;;;;;;;-0.34;100.00;101809.19;5071860;28;20024;-66
2023/12/03 01:20:07;;;;;;;35.67;16.08;;;;;;;-0.33;100.00;101815.44;5062437;28;20029;-67
2023/12/03 01:22:32;;;;;;;36.97;15.63;;;;;;;-0.31;100.00;101813.38;5052242;28;20049;-66
2023/12/03 01:24:58;;;;;;;36.40;16.17;;;;;;;-0.27;100.00;101817.31;5057695;28;20067;-65
2023/12/03 01:27:23;;;;;;;39.10;16.58;;;;;;;-0.25;100.00;101817.94;5051194;28;20480;-67
2023/12/03 01:29:48;;;;;;;39.38;16.70;;;;;;;-0.23;100.00;101818.59;5054097;28;20024;-66
2023/12/03 01:32:13;;;;;;;35.60;16.60;;;;;;;-0.21;100.00;101821.09;5051014;28;20465;-66
2023/12/03 01:34:39;;;;;;;39.97;17.75;;;;;;;-0.19;100.00;101819.00;5050912;28;20035;-65
2023/12/03 01:37:04;;;;;;;38.00;17.30;;;;;;;-0.19;100.00;101817.09;5050308;28;20158;-65
2023/12/03 01:39:29;;;;;;;37.17;16.15;;;;;;;-0.18;100.00;101818.78;5070351;28;20032;-65
2023/12/03 01:41:55;;;;;;;35.22;15.77;;;;;;;-0.17;100.00;101823.19;5059551;28;20025;-66
2023/12/03 01:44:20;;;;;;;36.45;16.38;;;;;;;-0.18;100.00;101826.94;5068817;28;20032;-66
2023/12/03 01:46:50;;;;;;;38.35;16.02;;;;;;;-0.23;100.00;101820.44;5052047;28;20025;-66
2023/12/03 01:49:17;;;;;;;38.50;17.05;;;;;;;-0.23;100.00;101829.47;5049394;28;20370;-66
2023/12/03 01:51:42;;;;;;;34.90;16.13;;;;;;;-0.23;100.00;101824.03;5069088;28;20028;-65
2023/12/03 01:54:08;;;;;;;34.92;16.33;;;;;;;-0.23;100.00;101825.88;5059711;28;20337;-66
2023/12/03 01:56:33;;;;;;;36.58;16.88;;;;;;;-0.22;100.00;101830.28;5058532;28;20120;-66
2023/12/03 01:58:59;;;;;;;36.63;18.00;;;;;;;-0.24;100.00;101833.22;5070632;28;20072;-68
2023/12/03 02:01:25;;;;;;;33.85;16.10;;;;;;;-0.26;100.00;101834.50;5056541;28;20075;-67
2023/12/03 02:03:50;;;;;;;37.25;16.67;;;;;;;-0.28;100.00;101836.56;5050634;28;20062;-66
2023/12/03 02:06:16;;;;;;;35.20;16.17;;;;;;;-0.33;100.00;101827.16;5038265;28;20528;-67
2023/12/03 02:08:41;;;;;;;35.08;16.80;;;;;;;-0.27;100.00;101838.25;5046233;28;20024;-67
2023/12/03 02:11:07;;;;;;;35.95;16.65;;;;;;;-0.34;100.00;101832.81;5068754;28;20090;-67
2023/12/03 02:13:34;;;;;;;35.08;16.70;;;;;;;-0.34;100.00;101835.53;5070421;28;20031;-66
2023/12/03 02:15:59;;;;;;;35.97;16.33;;;;;;;-0.35;100.00;101842.84;5057854;28;20029;-66
2023/12/03 02:18:26;;;;;;;37.28;16.48;;;;;;;-0.39;100.00;101849.75;5050400;28;20374;-67
2023/12/03 02:20:52;;;;;;;40.13;18.58;;;;;;;-0.41;100.00;101845.56;5054179;28;20032;-66
2023/12/03 02:23:17;;;;;;;35.33;16.90;;;;;;;-0.43;100.00;101844.94;5070281;28;20086;-67
2023/12/03 02:25:42;;;;;;;36.08;17.42;;;;;;;-0.50;100.00;101851.22;5061837;28;20030;-65
2023/12/03 02:28:08;;;;;;;35.90;17.10;;;;;;;-0.55;100.00;101844.72;5070340;28;20040;-65
2023/12/03 02:30:33;;;;;;;35.67;17.48;;;;;;;-0.61;100.00;101843.66;5051426;28;20104;-67
2023/12/03 02:32:59;;;;;;;35.65;16.10;;;;;;;-0.69;100.00;101855.53;5050416;28;20025;-66
2023/12/03 02:35:24;;;;;;;37.53;17.33;;;;;;;-0.75;100.00;101850.94;5056289;28;20035;-66
2023/12/03 02:37:49;;;;;;;36.08;18.17;;;;;;;-0.82;100.00;101859.06;5070025;28;20024;-66
2023/12/03 02:40:15;;;;;;;36.33;17.63;;;;;;;-0.89;100.00;101844.66;5063487;28;20377;-66
2023/12/03 02:42:40;;;;;;;36.17;17.17;;;;;;;-0.87;100.00;101853.44;5050084;28;20037;-66
2023/12/03 02:45:08;;;;;;;37.28;17.55;;;;;;;-0.89;100.00;101847.34;5054087;28;20025;-66
2023/12/03 02:47:33;;;;;;;35.25;16.60;;;;;;;-0.84;100.00;101844.84;5036604;28;20041;-65
2023/12/03 02:49:58;;;;;;;39.72;18.60;;;;;;;-0.84;100.00;101844.84;5051447;28;20036;-66
2023/12/03 02:52:23;;;;;;;39.55;18.58;;;;;;;-0.86;100.00;101838.81;5050073;28;20028;-67
2023/12/03 02:54:49;;;;;;;41.83;19.13;;;;;;;-0.85;100.00;101840.47;5051112;28;20397;-66
2023/12/03 02:57:14;;;;;;;42.15;20.65;;;;;;;-0.85;100.00;101839.63;5049812;28;20029;-66
2023/12/03 02:59:39;;;;;;;40.63;19.95;;;;;;;-0.89;100.00;101844.66;5050586;28;20029;-66
2023/12/03 03:02:05;;;;;;;42.63;20.13;;;;;;;-0.93;100.00;101847.97;5063659;28;20040;-66
2023/12/03 03:04:30;;;;;;;39.90;20.33;;;;;;;-0.98;100.00;101846.69;5048740;28;20031;-66
2023/12/03 03:06:55;;;;;;;41.88;20.15;;;;;;;-1.00;100.00;101848.81;5049843;28;20048;-66
2023/12/03 03:09:20;;;;;;;42.88;19.80;;;;;;;-1.01;100.00;101847.13;5050281;28;20090;-67
2023/12/03 03:11:46;;;;;;;42.08;19.67;;;;;;;-0.98;100.00;101845.88;5038287;28;20487;-67
2023/12/03 03:14:11;;;;;;;40.05;19.00;;;;;;;-0.98;100.00;101843.16;5061061;28;20124;-66
2023/12/03 03:16:36;;;;;;;40.83;19.48;;;;;;;-0.93;100.00;101847.97;5055861;28;20033;-66
2023/12/03 03:19:04;;;;;;;40.08;19.13;;;;;;;-0.99;100.00;101839.59;5057381;28;20029;-67
2023/12/03 03:21:29;;;;;;;41.58;19.55;;;;;;;-0.92;100.00;101847.75;5057064;28;20021;-66
2023/12/03 03:23:54;;;;;;;41.05;19.33;;;;;;;-0.90;100.00;101853.84;5061257;28;20469;-65
2023/12/03 03:26:20;;;;;;;37.85;18.30;;;;;;;-0.88;100.00;101849.03;5055540;28;20037;-67
2023/12/03 03:28:45;;;;;;;39.08;17.33;;;;;;;-0.87;100.00;101861.59;5047858;28;20032;-66
2023/12/03 03:31:10;;;;;;;39.63;18.23;;;;;;;-0.89;100.00;101852.78;5054370;28;20024;-67
2023/12/03 03:33:36;;;;;;;38.63;18.70;;;;;;;-0.91;100.00;101846.72;5063370;28;20055;-66
2023/12/03 03:36:01;;;;;;;35.95;17.15;;;;;;;-0.93;100.00;101853.41;5055608;28;20057;-66
2023/12/03 03:38:26;;;;;;;37.15;17.80;;;;;;;-0.98;100.00;101843.97;5056642;28;20385;-67
2023/12/03 03:40:53;;;;;;;36.13;18.08;;;;;;;-1.02;100.00;101850.03;5056201;28;20079;-66
2023/12/03 03:43:18;;;;;;;38.47;19.00;;;;;;;-1.04;100.00;101852.13;5069640;28;20079;-67
2023/12/03 03:45:43;;;;;;;38.00;17.15;;;;;;;-1.10;100.00;101851.06;5051794;28;20488;-67
2023/12/03 03:48:08;;;;;;;38.72;18.13;;;;;;;-1.10;100.00;101861.94;5029506;28;20034;-67
2023/12/03 03:50:34;;;;;;;36.92;17.27;;;;;;;-1.13;100.00;101859.59;5040961;28;20025;-66
2023/12/03 03:52:59;;;;;;;38.40;17.65;;;;;;;-1.18;100.00;101857.50;5065280;28;20124;-66
2023/12/03 03:55:24;;;;;;;40.83;17.83;;;;;;;-1.18;100.00;101860.22;5050893;28;20395;-67
2023/12/03 03:57:49;;;;;;;39.15;17.83;;;;;;;-1.23;100.00;101859.13;5049243;28;20035;-66
2023/12/03 04:00:15;;;;;;;39.05;19.02;;;;;;;-1.22;100.00;101860.81;5046100;28;20021;-66
2023/12/03 04:02:40;;;;;;;37.42;17.58;;;;;;;-1.24;100.00;101858.31;5048945;28;20370;-66
2023/12/03 04:05:07;;;;;;;38.28;17.83;;;;;;;-1.27;100.00;101866.84;5049245;28;20106;-66
2023/12/03 04:07:33;;;;;;;38.33;16.83;;;;;;;-1.30;100.00;101865.38;5049162;28;20107;-67
2023/12/03 04:09:58;;;;;;;42.83;22.00;;;;;;;-1.41;100.00;101857.81;5056538;28;20021;-67
2023/12/03 04:12:24;;;;;;;36.75;18.05;;;;;;;-1.34;100.00;101868.72;5060111;28;20372;-66
2023/12/03 04:14:49;;;;;;;41.08;18.27;;;;;;;-1.35;100.00;101869.75;5067508;28;20055;-66
2023/12/03 04:17:14;;;;;;;39.13;17.85;;;;;;;-1.38;100.00;101872.84;5062173;28;20055;-65
2023/12/03 04:19:40;;;;;;;38.55;17.08;;;;;;;-1.49;100.00;101845.22;5054727;28;20039;-65
2023/12/03 04:22:05;;;;;;;38.35;17.98;;;;;;;-1.47;100.00;101854.03;5041591;28;20087;-66
2023/12/03 04:24:30;;;;;;;38.25;18.33;;;;;;;-1.49;100.00;101860.69;5063887;28;20021;-66
2023/12/03 04:26:55;;;;;;;43.85;18.85;;;;;;;-1.52;100.00;101869.22;5072359;28;20051;-66
2023/12/03 04:29:21;;;;;;;38.58;19.23;;;;;;;-1.55;100.00;101867.75;5054758;28;20033;-65
2023/12/03 04:31:47;;;;;;;39.78;18.35;;;;;;;-1.61;100.00;101868.56;5052352;28;20052;-66
2023/12/03 04:34:12;;;;;;;43.20;19.33;;;;;;;-1.65;100.00;101862.66;5067381;28;20036;-66
2023/12/03 04:36:41;;;;;;;42.83;20.02;;;;;;;-1.68;100.00;101873.94;5072954;28;20497;-65
2023/12/03 04:39:07;;;;;;;41.40;17.95;;;;;;;-1.69;100.00;101868.69;5056692;28;20040;-66
2023/12/03 04:41:34;;;;;;;40.83;18.30;;;;;;;-1.69;100.00;101876.84;5052785;28;20021;-66
2023/12/03 04:44:00;;;;;;;43.85;20.08;;;;;;;-1.71;100.00;101887.06;5053681;28;20063;-65
2023/12/03 04:46:25;;;;;;;40.45;18.38;;;;;;;-1.71;100.00;101884.38;5064800;28;20115;-65
2023/12/03 04:48:50;;;;;;;41.20;18.05;;;;;;;-1.76;100.00;101885.78;5062632;28;20059;-66
2023/12/03 04:51:16;;;;;;;41.50;18.73;;;;;;;-1.78;100.00;101885.13;5052807;28;20070;-66
2023/12/03 04:53:42;;;;;;;40.55;19.08;;;;;;;-1.81;100.00;101888.25;5053055;28;20025;-66
2023/12/03 04:56:08;;;;;;;42.30;18.85;;;;;;;-1.85;100.00;101888.84;5052061;28;20048;-65
2023/12/03 04:58:33;;;;;;;43.25;19.10;;;;;;;-1.89;100.00;101878.38;5055694;28;20036;-66
2023/12/03 05:00:59;;;;;;;45.33;18.98;;;;;;;-1.90;100.00;101892.97;5071878;28;20097;-66
2023/12/03 05:03:24;;;;;;;43.92;18.55;;;;;;;-1.93;100.00;101887.13;5068325;28;20020;-65
2023/12/03 05:05:49;;;;;;;40.72;18.92;;;;;;;-1.98;100.00;101887.72;5060306;28;20770;-65
2023/12/03 05:08:15;;;;;;;42.45;17.92;;;;;;;-1.99;100.00;101890.63;5057245;28;20098;-67
2023/12/03 05:10:40;;;;;;;43.92;18.95;;;;;;;-2.02;100.00;101888.28;5055363;28;20025;-66
2023/12/03 05:13:06;;;;;;;43.25;20.33;;;;;;;-2.03;100.00;101892.88;5055106;28;20051;-66
2023/12/03 05:15:31;;;;;;;43.00;20.35;;;;;;;-2.04;100.00;101896.63;5052300;28;20025;-65
2023/12/03 05:17:56;;;;;;;42.95;17.92;;;;;;;-2.04;100.00;101893.94;5051186;28;20473;-65
2023/12/03 05:20:22;;;;;;;43.75;19.15;;;;;;;-2.07;100.00;101895.13;5062622;28;20063;-66
2023/12/03 05:22:47;;;;;;;37.47;17.98;;;;;;;-2.10;100.00;101898.25;5068196;28;20060;-66
2023/12/03 05:25:13;;;;;;;41.72;19.10;;;;;;;-2.13;100.00;101900.53;5067791;28;20043;-66
2023/12/03 05:27:38;;;;;;;38.22;18.70;;;;;;;-2.16;100.00;101898.19;5051028;28;20414;-66
2023/12/03 05:30:04;;;;;;;45.10;19.15;;;;;;;-2.23;100.00;101888.13;5051314;28;20109;-66
2023/12/03 05:32:30;;;;;;;43.33;19.25;;;;;;;-2.22;100.00;101907.94;5067306;28;20460;-65
2023/12/03 05:34:55;;;;;;;46.17;21.15;;;;;;;-2.26;100.00;101912.91;5058995;28;20108;-65
2023/12/03 05:37:20;;;;;;;44.58;19.67;;;;;;;-2.29;100.00;101913.28;5064499;28;20036;-65
2023/12/03 05:39:46;;;;;;;48.10;20.75;;;;;;;-2.32;100.00;101911.00;5069445;28;20071;-64
2023/12/03 05:42:13;;;;;;;44.15;19.52;;;;;;;-2.37;100.00;101911.56;5067717;28;20025;-66
2023/12/03 05:44:38;;;;;;;44.95;20.83;;;;;;;-2.37;100.00;101913.44;5059834;28;20392;-64
2023/12/03 05:47:03;;;;;;;49.25;22.83;;;;;;;-2.41;100.00;101912.97;5070663;28;20436;-65
2023/12/03 05:49:29;;;;;;;46.70;21.45;;;;;;;-2.42;100.00;101914.00;5054608;28;20033;-66
2023/12/03 05:51:54;;;;;;;47.17;20.75;;;;;;;-2.44;100.00;101907.94;5065083;28;20040;-65
2023/12/03 05:54:20;;;;;;;49.72;22.27;;;;;;;-2.45;100.00;101917.09;5064945;28;20025;-65
2023/12/03 05:56:45;;;;;;;43.53;21.23;;;;;;;-2.46;100.00;101918.16;5054025;28;20033;-66
2023/12/03 05:59:11;;;;;;;45.78;20.58;;;;;;;-2.49;100.00;101913.09;5059969;28;20060;-66
2023/12/03 06:01:37;;;;;;;48.95;21.83;;;;;;;-2.54;100.00;101918.25;5068598;28;20100;-65
2023/12/03 06:04:06;;;;;;;46.65;20.30;;;;;;;-2.57;100.00;101919.47;5069485;28;20086;-66
2023/12/03 06:06:32;;;;;;;44.58;19.67;;;;;;;-2.59;100.00;101924.25;5049432;28;20083;-65
2023/12/03 06:08:58;;;;;;;45.03;19.65;;;;;;;-2.61;100.00;101929.03;5049501;28;20033;-66
2023/12/03 06:11:23;;;;;;;48.47;22.20;;;;;;;-2.64;100.00;101929.41;5049797;28;20041;-65
2023/12/03 06:13:49;;;;;;;45.75;20.38;;;;;;;-2.68;100.00;101918.13;5049560;28;20025;-66
2023/12/03 06:16:14;;;;;;;49.25;19.30;;;;;;;-2.67;100.00;101922.50;5069823;28;20502;-65
2023/12/03 06:18:39;;;;;;;49.38;21.13;;;;;;;-2.67;100.00;101924.38;5059420;28;20025;-65
2023/12/03 06:21:07;;;;;;;46.45;19.92;;;;;;;-2.71;100.00;101932.03;5056049;28;20033;-65
2023/12/03 06:23:32;;;;;;;46.97;20.20;;;;;;;-2.70;100.00;101935.59;5054006;28;20064;-67
2023/12/03 06:25:57;;;;;;;45.70;19.02;;;;;;;-2.72;100.00;101941.19;5049124;28;20053;-66
2023/12/03 06:28:23;;;;;;;45.00;19.70;;;;;;;-2.74;100.00;101951.38;5051169;28;20473;-66
2023/12/03 06:30:48;;;;;;;45.80;19.92;;;;;;;-2.76;100.00;101939.06;5058057;28;20048;-66
2023/12/03 06:33:14;;;;;;;44.08;19.13;;;;;;;-2.78;100.00;101944.66;5039320;28;20025;-66
2023/12/03 06:35:40;;;;;;;43.05;18.70;;;;;;;-2.77;100.00;101949.06;5042985;28;20491;-66
2023/12/03 06:38:06;;;;;;;45.85;19.58;;;;;;;-2.83;100.00;101939.81;5037821;28;20033;-66
2023/12/03 06:40:31;;;;;;;45.10;19.05;;;;;;;-2.81;100.00;101950.44;5043811;28;20044;-66
2023/12/03 06:42:56;;;;;;;46.50;18.77;;;;;;;-2.82;100.00;101948.78;5040231;28;20580;-65
2023/12/03 06:45:21;;;;;;;43.90;18.30;;;;;;;-2.82;100.00;101952.34;5040851;28;20037;-65
2023/12/03 06:47:47;;;;;;;44.08;18.33;;;;;;;-2.82;100.00;101937.94;5043736;28;20738;-66
2023/12/03 06:50:12;;;;;;;43.40;19.38;;;;;;;-2.84;100.00;101930.00;5063757;28;20094;-65
2023/12/03 06:52:37;;;;;;;46.63;19.10;;;;;;;-2.83;100.00;101931.69;5041593;28;20036;-66
2023/12/03 06:55:03;;;;;;;45.42;17.98;;;;;;;-2.85;100.00;101924.78;5040681;28;20029;-66
2023/12/03 06:57:28;;;;;;;44.65;19.58;;;;;;;-2.80;100.00;101925.06;5041838;28;20025;-65
2023/12/03 06:59:53;;;;;;;43.15;18.75;;;;;;;-2.80;100.00;101922.34;5046930;28;20082;-65
2023/12/03 07:02:19;;;;;;;44.95;19.02;;;;;;;-2.82;100.00;101927.09;5042140;28;20095;-66
2023/12/03 07:04:44;;;;;;;43.70;19.08;;;;;;;-2.83;100.00;101931.69;5049789;28;20044;-66
2023/12/03 07:07:09;;;;;;;47.08;19.45;;;;;;;-2.86;100.00;101934.78;5064141;28;20041;-66
2023/12/03 07:09:35;;;;;;;40.25;17.05;;;;;;;-2.88;100.00;101936.81;5055866;28;20029;-65
2023/12/03 07:12:00;;;;;;;43.10;18.27;;;;;;;-2.91;100.00;101926.41;5069093;28;20035;-64
2023/12/03 07:14:25;;;;;;;42.80;16.95;;;;;;;-2.90;100.00;101933.50;5065220;28;20103;-64
2023/12/03 07:16:50;;;;;;;42.60;16.38;;;;;;;-2.91;100.00;101929.09;5058348;28;20025;-64
2023/12/03 07:19:16;;;;;;;41.72;16.63;;;;;;;-2.95;100.00;101930.50;5052949;28;20473;-64
2023/12/03 07:21:41;;;;;;;43.45;18.55;;;;;;;-2.93;100.00;101936.56;5065382;28;20129;-65
2023/12/03 07:24:07;;;;;;;41.80;17.65;;;;;;;-2.94;100.00;101942.19;5054413;28;20055;-65
2023/12/03 07:26:33;;;;;;;46.05;19.73;;;;;;;-2.96;100.00;101941.53;5053870;28;20024;-65
2023/12/03 07:28:58;;;;;;;45.78;21.02;;;;;;;-2.96;100.00;101938.81;5058480;28;20033;-65
2023/12/03 07:31:23;;;;;;;43.38;19.05;;;;;;;-2.99;100.00;101943.56;5057990;28;20039;-65
2023/12/03 07:33:49;;;;;;;42.05;17.52;;;;;;;-2.94;100.00;101945.72;5053418;28;20130;-64
2023/12/03 07:36:14;;;;;;;43.63;17.50;;;;;;;-2.93;100.00;101952.81;5052915;28;20423;-64
2023/12/03 07:38:40;;;;;;;44.60;18.33;;;;;;;-2.90;100.00;101954.28;5050949;28;20028;-64
2023/12/03 07:41:10;;;;;;;43.65;17.65;;;;;;;-2.90;100.00;101957.00;5065754;28;20025;-64
2023/12/03 07:43:35;;;;;;;41.25;18.55;;;;;;;-2.89;100.00;101958.69;5049771;28;20110;-64
2023/12/03 07:46:01;;;;;;;46.13;18.45;;;;;;;-2.86;100.00;101956.44;5057548;28;20033;-64
2023/12/03 07:48:26;;;;;;;40.08;17.90;;;;;;;-2.84;100.00;101958.97;5059766;28;20442;-64
2023/12/03 07:50:51;;;;;;;42.53;17.40;;;;;;;-2.84;100.00;101956.28;5068405;28;20106;-65
2023/12/03 07:53:16;;;;;;;45.92;17.83;;;;;;;-2.83;100.00;101960.63;5067504;28;20429;-64
2023/12/03 07:55:42;;;;;;;43.67;17.95;;;;;;;-2.80;100.00;101959.44;5063127;28;20651;-64
2023/12/03 07:58:07;;;;;;;43.17;16.08;;;;;;;-2.78;100.00;101962.78;5068726;28;20032;-65
2023/12/03 08:00:33;;;;;;;40.38;16.80;;;;;;;-2.76;100.00;101958.00;5059540;28;20044;-64
2023/12/03 08:02:58;;;;;;;43.70;18.48;;;;;;;-2.75;100.00;101957.84;5066861;28;20147;-65
2023/12/03 08:05:23;;;;;;;44.13;19.63;;;;;;;-2.70;100.00;101949.16;5052403;28;20033;-64
2023/12/03 08:07:49;;;;;;;43.20;18.25;;;;;;;-2.68;100.00;101960.59;5062008;28;20053;-64
2023/12/03 08:10:14;;;;;;;40.13;16.95;;;;;;;-2.67;100.00;101960.44;5055717;28;20032;-64
2023/12/03 08:12:39;;;;;;;43.15;18.20;;;;;;;-2.62;100.00;101956.31;5065764;28;20370;-65
2023/12/03 08:15:05;;;;;;;42.75;18.08;;;;;;;-2.60;100.00;101968.66;5053185;28;20045;-64
2023/12/03 08:17:30;;;;;;;42.67;17.88;;;;;;;-2.58;100.00;101971.16;5052334;28;20024;-64
2023/12/03 08:19:55;;;;;;;47.83;20.67;;;;;;;-2.55;100.00;101968.91;5060596;28;20056;-64
2023/12/03 08:22:21;;;;;;;42.13;17.45;;;;;;;-2.49;100.00;101977.28;5051551;28;20477;-64
2023/12/03 08:24:46;;;;;;;40.15;16.35;;;;;;;-2.44;100.00;101983.00;5053290;28;20043;-63
2023/12/03 08:27:11;;;;;;;41.03;17.15;;;;;;;-2.41;100.00;101983.44;5068007;28;20823;-64
2023/12/03 08:29:37;;;;;;;41.67;17.50;;;;;;;-2.35;100.00;101981.84;5063948;28;20065;-65
2023/12/03 08:32:02;;;;;;;44.20;19.80;;;;;;;-2.27;100.00;101978.19;5063573;28;20101;-65
2023/12/03 08:34:28;;;;;;;42.42;17.20;;;;;;;-2.20;100.00;101979.91;5065838;28;20044;-64
2023/12/03 08:36:54;;;;;;;38.20;17.27;;;;;;;-2.13;100.00;101981.88;5051131;28;20469;-64
2023/12/03 08:39:20;;;;;;;37.60;16.75;;;;;;;-2.05;100.00;101984.44;5052487;28;20060;-65
2023/12/03 08:41:45;;;;;;;40.55;16.98;;;;;;;-1.96;100.00;101982.41;5060454;28;20033;-65
2023/12/03 08:44:10;;;;;;;42.35;17.75;;;;;;;-1.90;100.00;101979.78;5050514;28;20365;-65
2023/12/03 08:46:35;;;;;;;39.22;16.60;;;;;;;-1.86;100.00;101993.78;5040443;28;20035;-66
2023/12/03 08:49:01;;;;;;;36.47;16.20;;;;;;;-1.81;100.00;101996.78;5057002;28;20021;-68
2023/12/03 08:51:26;;;;;;;43.80;19.00;;;;;;;-1.77;100.00;102003.47;5045876;28;20448;-66
2023/12/03 08:53:51;;;;;;;39.40;18.10;;;;;;;-1.78;100.00;102006.38;5046847;28;20350;-66
2023/12/03 08:56:17;;;;;;;35.67;15.60;;;;;;;-1.73;100.00;102007.50;5054417;28;20460;-67
2023/12/03 08:58:42;;;;;;;37.30;16.95;;;;;;;-1.71;100.00;102003.75;5066387;28;20024;-67
2023/12/03 09:01:08;;;;;;;39.28;15.40;;;;;;;-1.68;100.00;102000.63;5063143;28;20060;-68
2023/12/03 09:03:34;;;;;;;37.95;16.55;;;;;;;-1.62;100.00;102000.69;5055910;28;20108;-68
2023/12/03 09:06:00;;;;;;;37.78;15.48;;;;;;;-1.61;100.00;101996.09;5058873;28;20028;-68
2023/12/03 09:08:25;;;;;;;35.88;16.38;;;;;;;-1.58;100.00;101996.56;5056556;28;20056;-67
2023/12/03 09:10:51;;;;;;;37.78;15.68;;;;;;;-1.55;100.00;102005.31;5074416;28;20440;-66
2023/12/03 09:13:16;;;;;;;37.47;14.90;;;;;;;-1.54;100.00;102007.84;5073166;28;20127;-67
2023/12/03 09:15:42;;;;;;;33.38;15.15;;;;;;;-1.48;100.00;102017.91;5052737;28;20032;-66
2023/12/03 09:18:07;;;;;;;35.70;16.23;;;;;;;-1.45;100.00;102006.66;5056651;28;20037;-67
2023/12/03 09:20:32;;;;;;;35.40;15.55;;;;;;;-1.38;100.00;102011.28;5052182;28;20055;-67
2023/12/03 09:22:58;;;;;;;36.60;15.63;;;;;;;-1.30;100.00;102011.16;5054478;28;20465;-65
2023/12/03 09:25:23;;;;;;;35.97;14.95;;;;;;;-1.26;100.00;102026.00;5064997;28;20025;-66
2023/12/03 09:27:49;;;;;;;34.75;14.07;;;;;;;-1.22;100.00;102011.00;5069307;28;20029;-67
2023/12/03 09:30:14;;;;;;;36.30;14.73;;;;;;;-1.24;100.00;102006.81;5067323;28;20021;-67
2023/12/03 09:32:40;;;;;;;36.58;14.25;;;;;;;-1.15;100.00;102019.19;5072588;28;20440;-67
2023/12/03 09:35:06;;;;;;;37.03;15.82;;;;;;;-1.14;100.00;102015.44;5073864;28;20107;-66
2023/12/03 09:37:31;;;;;;;32.55;14.10;;;;;;;-1.14;100.00;102001.84;5066927;28;20421;-66
2023/12/03 09:39:57;;;;;;;35.58;14.77;;;;;;;-1.10;100.00;102005.88;5072904;28;20033;-67
2023/12/03 09:42:26;;;;;;;36.03;14.13;;;;;;;-1.03;100.00;102008.59;5068578;28;20073;-66
2023/12/03 09:44:56;;;;;;;33.22;13.88;;;;;;;-1.04;100.00;101994.19;5047569;28;20025;-65
2023/12/03 09:47:26;;;;;;;36.13;14.45;;;;;;;-0.95;100.00;102003.03;5051912;28;20067;-66
2023/12/03 09:49:54;;;;;;;35.58;14.43;;;;;;;-0.87;100.00;102011.00;5069857;28;20089;-65
2023/12/03 09:52:21;;;;;;;34.40;14.98;;;;;;;-0.85;100.00;101999.94;5062966;28;20056;-66
2023/12/03 09:54:47;;;;;;;34.13;14.70;;;;;;;-0.82;100.00;102010.41;5055898;28;20060;-65
2023/12/03 09:57:14;;;;;;;35.53;14.70;;;;;;;-0.81;100.00;101999.34;5066748;28;20021;-68
2023/12/03 09:59:45;;;;;;;37.05;15.98;;;;;;;-0.76;100.00;102003.34;5066477;28;20033;-67
2023/12/03 10:02:13;;;;;;;32.90;14.32;;;;;;;-0.75;100.00;101997.69;5064027;28;20117;-67
2023/12/03 10:04:38;;;;;;;33.42;13.30;;;;;;;-0.72;100.00;102012.75;5079580;28;20033;-67
2023/12/03 10:07:07;;;;;;;33.92;13.75;;;;;;;-0.72;100.00;102008.16;5073970;28;20063;-66
2023/12/03 10:09:32;;;;;;;33.40;13.63;;;;;;;-0.68;100.00;102008.59;5071249;28;20445;-68
2023/12/03 10:12:03;;;;;;;32.08;13.80;;;;;;;-0.65;100.00;102005.44;5045736;28;20036;-66
2023/12/03 10:14:28;;;;;;;31.85;13.98;;;;;;;-0.63;100.00;101998.78;5049766;28;20041;-66
2023/12/03 10:16:54;;;;;;;31.63;13.25;;;;;;;-0.63;100.00;101997.94;5048667;28;20552;-66
2023/12/03 10:19:27;;;;;;;32.00;13.48;;;;;;;-0.62;100.00;101999.63;5049910;28;20044;-65
2023/12/03 10:21:53;;;;;;;29.13;13.48;;;;;;;-0.62;100.00;101991.47;5048643;28;20127;-67
2023/12/03 10:24:20;;;;;;;32.58;13.07;;;;;;;-0.61;100.00;101990.44;5049970;28;20036;-67
2023/12/03 10:26:53;;;;;;;34.40;13.35;;;;;;;-0.58;100.00;101990.03;5048424;28;20033;-65
2023/12/03 10:29:26;;;;;;;31.42;13.18;;;;;;;-0.54;100.00;101985.03;5063071;28;20028;-66
2023/12/03 10:31:53;;;;;;;32.87;13.07;;;;;;;-0.53;100.00;101979.38;5069794;28;20658;-67
2023/12/03 10:34:19;;;;;;;32.33;13.10;;;;;;;-0.48;100.00;101981.47;5060989;28;20508;-67
2023/12/03 10:36:45;;;;;;;30.83;12.85;;;;;;;-0.47;100.00;101978.53;5061942;28;20369;-67
2023/12/03 10:39:17;;;;;;;35.63;14.82;;;;;;;-0.45;100.00;101980.22;5059510;28;20098;-67
2023/12/03 10:41:46;;;;;;;33.33;13.48;;;;;;;-0.43;100.00;101976.28;5063301;28;20476;-67
2023/12/03 10:44:24;;;;;;;29.98;12.48;;;;;;;-0.41;100.00;101970.63;5068190;28;20044;-67
2023/12/03 10:46:50;;;;;;;34.10;13.20;;;;;;;-0.39;100.00;101963.13;5050368;28;20036;-67
2023/12/03 10:49:16;;;;;;;30.23;12.85;;;;;;;-0.35;100.00;101967.09;5050237;28;20055;-68
2023/12/03 10:51:42;;;;;;;31.73;12.50;;;;;;;-0.33;100.00;101963.09;5047877;28;20124;-68
2023/12/03 10:54:09;;;;;;;29.83;11.95;;;;;;;-0.25;100.00;101953.09;5048984;28;20488;-67